Time;durP1;ratioP1;P1;durP2;ratioP2;P2;SDS_P1;SDS_P2;PMS_P1;PMS_P2;Temp;Humidity;BMP_temperature;BMP_pressure;BME280_temperature;BME280_humidity;BME280_pressure;Samples;Min_cycle;Max_cycle;Signal;HPM_P1;HPM_P2
2022/05/01 00:00:31;;;;;;;48.17;43.90;;;10.40;88.90;;;;;;5091690;28;20218;-75
2022/05/01 00:02:57;;;;;;;48.00;43.80;;;10.40;89.20;;;;;;5092346;28;20456;-74
2022/05/01 00:05:24;;;;;;;48.03;43.73;;;10.40;89.30;;;;;;5092132;28;20519;-74
2022/05/01 00:07:51;;;;;;;47.60;43.38;;;10.40;89.20;;;;;;5092193;28;20532;-74
2022/05/01 00:10:18;;;;;;;50.17;45.40;;;10.30;89.40;;;;;;5091700;28;20199;-74
2022/05/01 00:12:46;;;;;;;49.20;44.83;;;10.20;89.70;;;;;;5092186;28;20453;-74
2022/05/01 00:15:13;;;;;;;51.00;45.70;;;10.20;89.80;;;;;;5092065;28;20244;-75
2022/05/01 00:17:40;;;;;;;49.13;44.67;;;10.20;89.90;;;;;;5092026;28;20195;-74
2022/05/01 00:20:08;;;;;;;47.67;43.53;;;10.30;89.90;;;;;;5091501;28;20198;-74
2022/05/01 00:22:35;;;;;;;51.15;46.17;;;10.40;89.70;;;;;;5092159;28;20274;-74
2022/05/01 00:25:02;;;;;;;47.10;42.50;;;10.40;89.50;;;;;;5091931;28;20294;-74
2022/05/01 00:27:31;;;;;;;49.92;45.20;;;10.40;89.30;;;;;;5091435;28;20295;-74
2022/05/01 00:29:59;;;;;;;50.73;46.00;;;10.40;89.30;;;;;;5091318;28;20676;-74
2022/05/01 00:32:26;;;;;;;47.72;43.47;;;10.50;89.00;;;;;;5091888;28;20454;-74
2022/05/01 00:37:37;;;;;;;51.50;44.97;;;10.60;88.60;;;;;;5091805;28;20430;-74
2022/05/01 00:40:05;;;;;;;48.83;44.43;;;10.60;88.60;;;;;;5091294;28;20458;-74
2022/05/01 00:42:32;;;;;;;49.23;44.63;;;10.60;88.50;;;;;;5091782;28;20528;-75
2022/05/01 00:45:00;;;;;;;48.70;44.33;;;10.60;88.40;;;;;;5091846;28;20481;-75
2022/05/01 00:47:27;;;;;;;48.97;44.67;;;10.60;88.50;;;;;;5091829;28;20206;-75
2022/05/01 00:49:54;;;;;;;48.50;44.17;;;10.70;88.40;;;;;;5091332;28;20493;-74
2022/05/01 00:52:23;;;;;;;47.67;43.37;;;10.70;88.40;;;;;;5091935;28;20449;-75
2022/05/01 00:54:49;;;;;;;50.37;45.87;;;10.80;88.20;;;;;;5091700;28;20462;-74
2022/05/01 00:57:17;;;;;;;48.67;44.27;;;10.80;88.00;;;;;;5091919;28;20454;-75
2022/05/01 00:59:45;;;;;;;48.33;44.03;;;10.90;87.80;;;;;;5091244;28;20449;-75
2022/05/01 01:02:13;;;;;;;49.10;44.60;;;10.90;87.70;;;;;;5091834;28;20537;-74
2022/05/01 01:04:40;;;;;;;51.10;46.27;;;10.90;87.60;;;;;;5091628;28;20552;-75
2022/05/01 01:07:07;;;;;;;50.30;45.80;;;10.90;87.50;;;;;;5091517;28;21015;-75
2022/05/01 01:09:36;;;;;;;48.97;44.70;;;10.80;87.60;;;;;;5091035;28;20453;-75
2022/05/01 01:14:48;;;;;;;51.13;46.67;;;10.80;87.70;;;;;;5091697;28;20621;-75
2022/05/01 01:17:16;;;;;;;51.07;46.60;;;10.90;87.40;;;;;;5091607;28;20457;-75
2022/05/01 01:19:43;;;;;;;51.80;46.90;;;10.90;87.50;;;;;;5090928;28;20455;-75
2022/05/01 01:22:11;;;;;;;51.03;46.37;;;10.90;87.40;;;;;;5091549;28;20513;-75
2022/05/01 01:24:41;;;;;;;49.13;44.50;;;11.00;86.80;;;;;;5091519;28;20477;-75
2022/05/01 01:27:08;;;;;;;52.57;47.20;;;11.00;86.80;;;;;;5091159;28;21017;-75
2022/05/01 01:32:25;;;;;;;52.60;47.40;;;10.90;86.50;;;;;;5095031;28;20897;-75
2022/05/01 01:34:53;;;;;;;54.27;48.97;;;10.80;86.80;;;;;;5095095;28;20473;-75
2022/05/01 01:37:25;;;;;;;52.50;47.40;;;10.80;87.10;;;;;;5095118;28;20519;-75
2022/05/01 01:39:52;;;;;;;51.60;46.90;;;10.80;87.10;;;;;;5094434;28;20462;-75
2022/05/01 01:42:21;;;;;;;50.73;46.33;;;10.80;86.90;;;;;;5095025;28;20454;-74
2022/05/01 01:44:49;;;;;;;54.10;48.95;;;10.70;87.30;;;;;;5094612;28;20469;-75
2022/05/01 01:47:16;;;;;;;52.67;47.47;;;10.70;88.20;;;;;;5094741;28;20196;-74
2022/05/01 01:49:42;;;;;;;53.10;48.20;;;10.80;87.30;;;;;;5094335;28;20456;-75
2022/05/01 01:52:09;;;;;;;54.58;49.30;;;10.80;87.30;;;;;;5094716;28;20446;-75
2022/05/01 01:54:38;;;;;;;51.77;46.90;;;10.60;87.60;;;;;;5094675;28;20219;-75
2022/05/01 01:57:06;;;;;;;53.00;47.70;;;10.70;87.50;;;;;;5094525;28;20489;-75
2022/05/01 01:59:33;;;;;;;56.43;50.83;;;10.70;88.00;;;;;;5093902;28;20450;-75
2022/05/01 02:02:01;;;;;;;52.77;47.77;;;10.70;88.60;;;;;;5094470;28;20788;-75
2022/05/01 02:04:28;;;;;;;51.17;46.23;;;10.70;88.20;;;;;;5094444;28;20477;-75
2022/05/01 02:06:54;;;;;;;52.63;47.63;;;10.70;88.30;;;;;;5094297;28;20470;-75
2022/05/01 02:09:22;;;;;;;52.37;47.53;;;10.70;87.50;;;;;;5093908;28;20456;-75
2022/05/01 02:11:50;;;;;;;51.53;46.77;;;10.60;87.40;;;;;;5094141;28;20454;-75
2022/05/01 02:14:17;;;;;;;51.60;46.80;;;10.70;87.20;;;;;;5094212;28;20563;-75
2022/05/01 02:16:44;;;;;;;50.83;46.03;;;10.70;87.20;;;;;;5094222;28;20449;-75
2022/05/01 02:19:11;;;;;;;52.53;47.53;;;10.60;87.50;;;;;;5093807;28;20446;-75
2022/05/01 02:21:39;;;;;;;51.60;46.77;;;10.60;87.80;;;;;;5093995;28;20449;-74
2022/05/01 02:24:08;;;;;;;49.57;45.17;;;10.60;87.80;;;;;;5094182;28;20505;-75
2022/05/01 02:26:36;;;;;;;50.63;45.83;;;10.70;87.10;;;;;;5093648;28;20512;-74
2022/05/01 02:29:09;;;;;;;50.57;45.67;;;10.60;87.40;;;;;;5094056;28;20479;-75
2022/05/01 02:31:38;;;;;;;50.67;45.93;;;10.50;87.60;;;;;;5094116;28;20615;-74
2022/05/01 02:34:05;;;;;;;49.13;44.73;;;10.50;87.90;;;;;;5094366;28;20890;-75
2022/05/01 02:36:32;;;;;;;51.80;47.10;;;10.60;87.90;;;;;;5093878;28;20450;-74
2022/05/01 02:38:59;;;;;;;50.07;45.40;;;10.70;87.40;;;;;;5093687;28;20822;-75
2022/05/01 02:41:26;;;;;;;53.43;48.57;;;10.60;87.80;;;;;;5092206;28;20450;-75
2022/05/01 02:43:53;;;;;;;48.63;43.93;;;10.60;88.60;;;;;;5093735;28;20478;-75
2022/05/01 02:46:22;;;;;;;49.93;45.43;;;10.60;88.00;;;;;;5093528;28;20478;-75
2022/05/01 02:48:49;;;;;;;50.07;45.63;;;10.70;87.60;;;;;;5093605;28;20511;-75
2022/05/01 02:51:16;;;;;;;50.93;46.10;;;10.70;87.00;;;;;;5093274;28;20875;-75
2022/05/01 02:53:43;;;;;;;51.90;47.00;;;10.60;88.00;;;;;;5093482;28;20830;-75
2022/05/01 02:56:10;;;;;;;49.43;44.60;;;10.60;89.30;;;;;;5093371;28;20850;-74
2022/05/01 02:58:37;;;;;;;51.33;46.50;;;10.60;88.40;;;;;;5093467;28;20449;-75
2022/05/01 03:01:07;;;;;;;48.67;44.40;;;10.50;88.60;;;;;;5092912;28;20454;-75
2022/05/01 03:03:36;;;;;;;47.97;43.37;;;10.50;88.30;;;;;;5093382;28;20831;-75
2022/05/01 03:06:06;;;;;;;48.63;44.20;;;10.50;88.30;;;;;;5093174;28;20481;-75
2022/05/01 03:08:33;;;;;;;50.47;45.60;;;10.50;88.80;;;;;;5093142;28;20529;-75
2022/05/01 03:11:00;;;;;;;50.10;45.40;;;10.60;88.80;;;;;;5092700;28;20468;-75
2022/05/01 03:13:28;;;;;;;49.70;45.27;;;10.50;88.60;;;;;;5093240;28;20478;-75
2022/05/01 03:15:55;;;;;;;49.10;44.50;;;10.50;88.40;;;;;;5092979;28;20449;-75
2022/05/01 03:23:54;;;;;;;52.30;47.37;;;10.50;87.60;;;;;;5092970;28;20453;-74
2022/05/01 03:26:21;;;;;;;52.00;47.27;;;10.30;87.80;;;;;;5092915;28;20480;-75
2022/05/01 03:28:49;;;;;;;51.90;46.17;;;10.30;88.30;;;;;;5092119;28;20659;-75
2022/05/01 03:31:17;;;;;;;48.83;44.50;;;10.30;87.90;;;;;;5092356;28;21009;-75
2022/05/01 03:33:44;;;;;;;55.35;49.95;;;10.10;88.50;;;;;;5092516;28;20491;-75
2022/05/01 03:36:14;;;;;;;53.70;48.55;;;9.90;89.30;;;;;;5092759;28;20683;-75
2022/05/01 03:38:43;;;;;;;58.17;50.10;;;9.90;89.80;;;;;;5092693;28;20657;-75
2022/05/01 03:41:13;;;;;;;56.90;50.72;;;10.00;89.50;;;;;;5092093;28;20451;-75
2022/05/01 03:43:40;;;;;;;55.55;50.08;;;10.10;89.30;;;;;;5092536;28;20226;-75
2022/05/01 03:46:07;;;;;;;54.17;48.67;;;10.10;89.20;;;;;;5092707;28;20223;-75
2022/05/01 03:48:37;;;;;;;55.10;49.40;;;10.20;89.10;;;;;;5092403;28;20200;-75
2022/05/01 03:51:06;;;;;;;54.75;49.17;;;10.40;88.10;;;;;;5092038;28;20605;-75
2022/05/01 03:53:35;;;;;;;55.08;49.47;;;10.40;87.60;;;;;;5092029;28;20610;-75
2022/05/01 03:56:01;;;;;;;56.60;50.88;;;10.20;88.20;;;;;;5092302;28;20195;-75
2022/05/01 03:58:29;;;;;;;52.00;46.60;;;10.10;88.80;;;;;;5092230;28;20621;-75
2022/05/01 04:00:56;;;;;;;54.85;49.20;;;10.10;88.80;;;;;;5091874;28;20206;-75
2022/05/01 04:03:23;;;;;;;56.40;50.72;;;10.10;88.80;;;;;;5092227;28;20276;-75
2022/05/01 04:05:50;;;;;;;56.63;50.87;;;10.00;88.90;;;;;;5092462;28;20211;-75
2022/05/01 04:08:17;;;;;;;54.85;49.10;;;9.90;89.30;;;;;;5092167;28;20446;-74
2022/05/01 04:10:46;;;;;;;60.95;51.45;;;9.90;89.70;;;;;;5091823;28;20199;-74
2022/05/01 04:13:15;;;;;;;56.33;50.47;;;10.00;89.60;;;;;;5092146;28;20550;-74
2022/05/01 04:15:42;;;;;;;55.80;50.10;;;10.10;89.20;;;;;;5092339;28;20204;-75
2022/05/01 04:18:10;;;;;;;55.08;49.35;;;10.10;88.90;;;;;;5092091;28;21053;-74
2022/05/01 04:20:38;;;;;;;55.70;50.05;;;10.20;88.70;;;;;;5091680;28;20200;-75
2022/05/01 04:23:06;;;;;;;55.47;49.88;;;10.20;88.50;;;;;;5092122;28;20572;-75
2022/05/01 04:25:34;;;;;;;58.42;51.60;;;10.10;88.50;;;;;;5091970;28;20198;-75
2022/05/01 04:28:05;;;;;;;58.17;51.70;;;10.10;89.00;;;;;;5091618;28;20204;-75
2022/05/01 04:30:33;;;;;;;54.92;49.53;;;10.10;89.10;;;;;;5091488;28;20207;-75
2022/05/01 04:33:02;;;;;;;55.92;50.60;;;10.10;88.70;;;;;;5091893;28;20289;-75
2022/05/01 04:35:32;;;;;;;55.35;49.88;;;10.10;88.70;;;;;;5091962;28;20210;-75
2022/05/01 04:38:00;;;;;;;54.42;48.75;;;10.10;88.70;;;;;;5091969;28;20203;-75
2022/05/01 04:40:28;;;;;;;54.60;49.10;;;10.10;88.50;;;;;;5091820;28;20283;-75
2022/05/01 04:43:03;;;;;;;56.00;50.30;;;10.10;88.90;;;;;;5091965;28;20453;-75
2022/05/01 04:45:30;;;;;;;56.95;51.25;;;10.10;88.50;;;;;;5091862;28;20195;-75
2022/05/01 04:47:57;;;;;;;56.03;50.37;;;10.10;88.20;;;;;;5091881;28;20253;-75
2022/05/01 04:50:24;;;;;;;54.45;49.25;;;10.20;88.30;;;;;;5091172;28;20800;-75
2022/05/01 04:52:51;;;;;;;53.38;48.13;;;10.20;88.30;;;;;;5091821;28;20198;-75
2022/05/01 04:55:18;;;;;;;53.28;47.67;;;10.20;88.20;;;;;;5091843;28;20564;-75
2022/05/01 04:57:45;;;;;;;50.67;45.85;;;10.30;87.70;;;;;;5091899;28;20200;-75
2022/05/01 05:00:14;;;;;;;50.50;45.80;;;10.40;87.30;;;;;;5091159;28;20202;-75
2022/05/01 05:02:43;;;;;;;52.87;48.07;;;10.30;87.20;;;;;;5091791;28;20961;-75
2022/05/01 05:05:12;;;;;;;50.87;46.00;;;10.40;87.10;;;;;;5093041;28;20477;-74
2022/05/01 05:07:39;;;;;;;52.83;47.73;;;10.40;86.80;;;;;;5095560;28;20477;-75
2022/05/01 05:10:09;;;;;;;49.67;45.03;;;10.30;86.90;;;;;;5094982;28;20456;-75
2022/05/01 05:12:37;;;;;;;52.37;47.57;;;10.30;87.00;;;;;;5095660;28;20192;-75
2022/05/01 05:15:08;;;;;;;52.80;48.00;;;10.30;87.10;;;;;;5095372;28;20500;-74
2022/05/01 05:17:38;;;;;;;50.80;45.87;;;10.30;87.20;;;;;;5095398;28;20547;-75
2022/05/01 05:20:06;;;;;;;50.83;46.13;;;10.40;87.10;;;;;;5094743;28;20460;-75
2022/05/01 05:22:33;;;;;;;49.53;44.88;;;10.50;86.80;;;;;;5095592;28;20453;-75
2022/05/01 05:25:00;;;;;;;52.13;47.13;;;10.50;86.70;;;;;;5095165;28;20220;-75
2022/05/01 05:27:27;;;;;;;53.03;47.93;;;10.60;86.20;;;;;;5094640;28;20572;-75
2022/05/01 05:29:54;;;;;;;52.40;47.60;;;10.60;86.20;;;;;;5094491;28;20454;-75
2022/05/01 05:32:22;;;;;;;52.87;47.50;;;10.70;85.90;;;;;;5095005;28;20445;-75
2022/05/01 05:34:51;;;;;;;51.50;46.70;;;10.70;85.70;;;;;;5095075;28;20507;-75
2022/05/01 05:37:19;;;;;;;55.50;50.73;;;10.70;85.70;;;;;;5095327;28;20446;-74
2022/05/01 05:39:47;;;;;;;53.37;48.60;;;10.60;85.90;;;;;;5094372;28;20457;-74
2022/05/01 05:42:14;;;;;;;52.93;48.10;;;10.70;86.00;;;;;;5095031;28;20529;-74
2022/05/01 05:44:42;;;;;;;51.97;46.60;;;10.70;85.50;;;;;;5094933;28;20565;-74
2022/05/01 05:47:09;;;;;;;54.30;49.30;;;10.60;85.60;;;;;;5094843;28;20831;-75
2022/05/01 05:49:36;;;;;;;55.27;50.07;;;10.60;86.20;;;;;;5093997;28;20885;-74
2022/05/01 05:52:05;;;;;;;52.93;47.50;;;10.60;85.90;;;;;;5094952;28;20532;-74
2022/05/01 05:54:33;;;;;;;51.57;46.37;;;10.70;85.90;;;;;;5094279;28;20475;-75
2022/05/01 05:57:00;;;;;;;52.87;47.77;;;10.60;86.00;;;;;;5094634;28;20457;-74
2022/05/01 05:59:27;;;;;;;52.97;47.95;;;10.50;86.20;;;;;;5093903;28;20460;-74
2022/05/01 06:01:54;;;;;;;53.22;48.20;;;10.40;86.90;;;;;;5094579;28;20231;-74
2022/05/01 06:04:21;;;;;;;54.07;48.33;;;10.30;87.40;;;;;;5094572;28;20212;-74
2022/05/01 06:06:48;;;;;;;55.00;49.70;;;10.30;87.40;;;;;;5094272;28;20499;-74
2022/05/01 06:09:16;;;;;;;52.03;47.22;;;10.50;87.30;;;;;;5093771;28;20540;-75
2022/05/01 06:11:43;;;;;;;51.73;46.77;;;10.60;86.70;;;;;;5094222;28;20199;-74
2022/05/01 06:14:10;;;;;;;54.67;49.37;;;10.70;86.40;;;;;;5094440;28;20862;-75
2022/05/01 06:16:38;;;;;;;53.13;48.23;;;10.80;85.90;;;;;;5094070;28;20839;-74
2022/05/01 06:19:07;;;;;;;53.20;47.93;;;11.00;85.50;;;;;;5094070;28;20553;-75
2022/05/01 06:21:34;;;;;;;50.90;46.10;;;10.90;85.10;;;;;;5094270;28;20480;-75
2022/05/01 06:24:00;;;;;;;51.47;46.97;;;11.00;85.20;;;;;;5093971;28;20469;-74
2022/05/01 06:26:29;;;;;;;52.20;47.13;;;11.10;84.90;;;;;;5094115;28;20826;-75
2022/05/01 06:28:58;;;;;;;50.17;45.47;;;11.10;84.50;;;;;;5093421;28;20803;-75
2022/05/01 06:31:25;;;;;;;49.87;45.37;;;11.20;84.10;;;;;;5093647;28;20453;-75
2022/05/01 06:33:51;;;;;;;50.63;46.27;;;11.20;84.00;;;;;;5093577;28;20511;-75
2022/05/01 06:36:18;;;;;;;50.17;45.83;;;11.30;83.70;;;;;;5093908;28;20532;-75
2022/05/01 06:38:45;;;;;;;49.57;44.30;;;11.40;83.40;;;;;;5093638;28;20482;-74
2022/05/01 06:41:13;;;;;;;47.70;43.70;;;11.50;83.00;;;;;;5093263;28;20545;-75
2022/05/01 06:43:41;;;;;;;47.17;43.37;;;11.60;82.30;;;;;;5093605;28;20474;-75
2022/05/01 06:46:08;;;;;;;47.07;43.03;;;11.70;81.60;;;;;;5093547;28;20456;-75
2022/05/01 06:48:35;;;;;;;48.90;44.50;;;11.70;81.50;;;;;;5093593;28;20479;-75
2022/05/01 06:51:02;;;;;;;48.43;44.27;;;11.80;81.30;;;;;;5093042;28;20544;-75
2022/05/01 06:53:29;;;;;;;49.30;45.00;;;12.00;80.90;;;;;;5093512;28;20473;-75
2022/05/01 06:55:56;;;;;;;51.60;47.10;;;12.00;81.00;;;;;;5093495;28;20449;-74
2022/05/01 06:58:24;;;;;;;50.07;45.57;;;12.20;80.30;;;;;;5093367;28;20476;-75
2022/05/01 07:00:53;;;;;;;50.43;45.87;;;12.20;79.90;;;;;;5092940;28;21031;-75
2022/05/01 07:03:20;;;;;;;48.27;44.07;;;12.30;79.40;;;;;;5093320;28;20500;-75
2022/05/01 07:05:47;;;;;;;48.40;44.23;;;12.40;79.50;;;;;;5093313;28;20536;-74
2022/05/01 07:08:14;;;;;;;46.63;42.73;;;12.50;79.00;;;;;;5092937;28;20481;-75
2022/05/01 07:10:41;;;;;;;48.57;44.53;;;12.30;78.90;;;;;;5092796;28;20446;-74
2022/05/01 07:13:09;;;;;;;47.63;43.57;;;12.30;79.50;;;;;;5093074;28;20814;-75
2022/05/01 07:15:36;;;;;;;47.23;43.30;;;12.30;79.70;;;;;;5093227;28;20908;-75
2022/05/01 07:18:05;;;;;;;46.37;42.27;;;12.60;79.40;;;;;;5093003;28;20456;-75
2022/05/01 07:20:35;;;;;;;46.50;42.50;;;12.70;78.90;;;;;;5092440;28;20454;-75
2022/05/01 07:23:02;;;;;;;46.27;42.37;;;13.00;77.80;;;;;;5092934;28;20477;-75
2022/05/01 07:25:29;;;;;;;45.13;41.43;;;12.90;77.20;;;;;;5093029;28;20456;-75
2022/05/01 07:27:56;;;;;;;45.97;42.40;;;13.00;77.30;;;;;;5091746;28;20470;-75
2022/05/01 07:30:23;;;;;;;47.43;43.17;;;13.00;76.80;;;;;;5092168;28;20492;-75
2022/05/01 07:32:50;;;;;;;46.80;43.10;;;13.00;76.60;;;;;;5092439;28;20537;-75
2022/05/01 07:35:18;;;;;;;46.13;42.23;;;13.00;77.00;;;;;;5092835;28;20458;-75
2022/05/01 07:37:45;;;;;;;46.60;42.60;;;13.10;77.00;;;;;;5092593;28;20450;-75
2022/05/01 07:40:13;;;;;;;45.40;41.60;;;13.30;76.40;;;;;;5092161;28;20450;-75
2022/05/01 07:42:39;;;;;;;47.90;44.00;;;13.40;76.40;;;;;;5092720;28;20453;-75
2022/05/01 07:45:08;;;;;;;44.43;40.90;;;13.60;75.80;;;;;;5092428;28;20472;-75
2022/05/01 07:47:36;;;;;;;46.17;42.03;;;13.70;74.60;;;;;;5092402;28;20535;-75
2022/05/01 07:50:03;;;;;;;42.33;38.83;;;13.70;74.60;;;;;;5092325;28;20481;-75
2022/05/01 07:52:31;;;;;;;44.13;40.40;;;13.80;74.00;;;;;;5092609;28;20454;-75
2022/05/01 07:54:58;;;;;;;43.60;40.27;;;13.90;73.90;;;;;;5092466;28;20466;-74
2022/05/01 07:57:26;;;;;;;45.00;41.40;;;13.90;74.10;;;;;;5092351;28;20951;-75
2022/05/01 07:59:53;;;;;;;44.90;41.37;;;14.20;73.80;;;;;;5092198;28;20457;-75
2022/05/01 08:02:20;;;;;;;44.27;40.37;;;14.40;73.00;;;;;;5092405;28;20454;-75
2022/05/01 08:04:46;;;;;;;43.13;39.83;;;14.60;71.20;;;;;;5092447;28;20466;-75
2022/05/01 08:07:13;;;;;;;43.13;39.83;;;14.20;71.80;;;;;;5092393;28;20673;-75
2022/05/01 08:09:41;;;;;;;43.70;40.00;;;14.20;72.10;;;;;;5091792;28;21030;-75
2022/05/01 08:12:09;;;;;;;46.50;42.50;;;14.30;72.10;;;;;;5092362;28;20457;-75
2022/05/01 08:14:37;;;;;;;44.13;40.63;;;14.50;71.90;;;;;;5092112;28;20473;-75
2022/05/01 08:17:04;;;;;;;43.23;39.73;;;14.40;71.70;;;;;;5092240;28;20445;-75
2022/05/01 08:22:15;;;;;;;42.80;39.50;;;14.70;70.80;;;;;;5092437;28;20445;-75
2022/05/01 08:24:44;;;;;;;42.33;39.03;;;14.90;70.10;;;;;;5091836;28;20974;-75
2022/05/01 08:27:10;;;;;;;42.57;39.37;;;15.10;69.40;;;;;;5091639;28;20481;-75
2022/05/01 08:29:38;;;;;;;42.40;39.00;;;15.20;69.20;;;;;;5091610;28;20453;-75
2022/05/01 08:32:07;;;;;;;43.47;40.20;;;15.00;69.60;;;;;;5092082;28;20457;-75
2022/05/01 08:34:34;;;;;;;46.00;42.43;;;15.10;69.50;;;;;;5091983;28;20466;-75
2022/05/01 08:37:01;;;;;;;39.50;36.57;;;15.40;68.80;;;;;;5091991;28;20939;-75
2022/05/01 08:39:27;;;;;;;40.20;37.20;;;15.70;66.10;;;;;;5093250;28;20519;-75
2022/05/01 08:41:56;;;;;;;38.77;35.80;;;15.70;65.90;;;;;;5096184;28;20453;-75
2022/05/01 08:44:30;;;;;;;38.97;36.17;;;15.80;65.70;;;;;;5096082;28;20476;-75
2022/05/01 08:47:03;;;;;;;41.90;38.90;;;15.80;65.50;;;;;;5095986;28;20456;-75
2022/05/01 08:49:34;;;;;;;40.93;37.73;;;15.70;66.30;;;;;;5095541;28;20532;-75
2022/05/01 08:52:02;;;;;;;39.90;36.90;;;16.00;65.80;;;;;;5095957;28;20449;-75
2022/05/01 08:54:31;;;;;;;39.87;36.80;;;16.00;65.30;;;;;;5095869;28;20540;-75
2022/05/01 08:57:01;;;;;;;41.10;37.90;;;15.80;65.70;;;;;;5095725;28;20456;-75
2022/05/01 08:59:30;;;;;;;40.57;37.70;;;15.50;66.60;;;;;;5095297;28;21048;-75
2022/05/01 09:01:58;;;;;;;40.30;37.40;;;15.60;66.90;;;;;;5095681;28;20450;-75
2022/05/01 09:04:26;;;;;;;38.33;35.63;;;15.70;67.00;;;;;;5095688;28;20470;-75
2022/05/01 09:06:54;;;;;;;38.37;35.67;;;15.90;66.90;;;;;;5095504;28;20467;-75
2022/05/01 09:09:22;;;;;;;41.50;38.50;;;16.20;66.00;;;;;;5095094;28;20473;-75
2022/05/01 09:14:37;;;;;;;39.00;36.30;;;16.30;64.70;;;;;;5095592;28;20966;-75
2022/05/01 09:17:20;;;;;;;40.60;37.60;;;16.40;65.10;;;;;;5095371;28;20453;-75
2022/05/01 09:19:49;;;;;;;38.80;35.90;;;16.50;65.00;;;;;;5095006;28;20923;-75
2022/05/01 09:22:16;;;;;;;39.50;36.50;;;16.70;64.60;;;;;;5095526;28;20946;-75
2022/05/01 09:24:43;;;;;;;39.17;36.37;;;16.50;63.80;;;;;;5095307;28;20469;-75
2022/05/01 09:27:28;;;;;;;39.93;36.93;;;16.50;63.60;;;;;;5094664;28;20453;-75
2022/05/01 09:30:10;;;;;;;39.23;36.53;;;16.60;63.50;;;;;;5094950;28;20861;-75
2022/05/01 09:32:38;;;;;;;39.70;35.70;;;16.90;62.80;;;;;;5094980;28;20457;-75
2022/05/01 09:35:06;;;;;;;40.03;37.13;;;17.30;62.80;;;;;;5095228;28;20474;-75
2022/05/01 09:37:32;;;;;;;40.50;37.10;;;17.50;62.10;;;;;;5094856;28;20481;-75
2022/05/01 09:40:00;;;;;;;39.50;36.67;;;17.80;61.00;;;;;;5094687;28;20454;-75
2022/05/01 09:42:29;;;;;;;40.97;38.17;;;17.80;60.70;;;;;;5094965;28;20461;-75
2022/05/01 09:45:06;;;;;;;39.13;36.10;;;17.60;60.90;;;;;;5094977;28;20470;-75
2022/05/01 09:47:39;;;;;;;42.57;39.57;;;17.60;61.20;;;;;;5094802;28;20469;-75
2022/05/01 09:50:08;;;;;;;40.00;37.03;;;17.80;61.00;;;;;;5093748;28;20546;-75
2022/05/01 09:52:54;;;;;;;41.20;38.17;;;17.70;60.80;;;;;;5094579;28;21014;-75
2022/05/01 09:55:21;;;;;;;37.53;35.03;;;18.10;60.50;;;;;;5094597;28;20446;-75
2022/05/01 09:57:48;;;;;;;42.33;39.20;;;18.30;59.80;;;;;;5094595;28;20449;-75
2022/05/01 10:00:35;;;;;;;40.87;38.07;;;18.30;59.60;;;;;;5093880;28;20462;-75
2022/05/01 10:03:22;;;;;;;39.00;36.30;;;18.60;58.30;;;;;;5094489;28;20453;-75
2022/05/01 10:05:50;;;;;;;38.80;36.00;;;18.60;57.70;;;;;;5094357;28;20449;-75
2022/05/01 10:08:18;;;;;;;39.70;36.70;;;18.10;58.40;;;;;;5094314;28;20478;-75
2022/05/01 10:10:47;;;;;;;41.47;38.57;;;17.80;59.00;;;;;;5093804;28;21011;-75
2022/05/01 10:13:14;;;;;;;40.80;37.90;;;17.70;59.40;;;;;;5094338;28;20473;-75
2022/05/01 10:15:41;;;;;;;39.70;36.80;;;17.70;59.50;;;;;;5094269;28;21018;-75
2022/05/01 10:18:12;;;;;;;39.70;37.00;;;17.60;59.50;;;;;;5094194;28;20452;-75
2022/05/01 10:20:42;;;;;;;37.10;34.47;;;17.60;59.70;;;;;;5093710;28;20450;-75
2022/05/01 10:23:09;;;;;;;40.03;37.20;;;18.00;59.20;;;;;;5094174;28;20533;-75
2022/05/01 10:25:39;;;;;;;37.77;34.90;;;18.10;59.20;;;;;;5093998;28;20954;-75
2022/05/01 10:28:16;;;;;;;36.00;33.60;;;18.30;58.20;;;;;;5093429;28;20480;-75
2022/05/01 10:33:58;;;;;;;37.20;34.70;;;18.50;57.90;;;;;;5093723;28;20465;-75
2022/05/01 10:36:48;;;;;;;36.50;33.87;;;18.50;57.40;;;;;;5093830;28;20488;-75
2022/05/01 10:39:17;;;;;;;36.00;33.27;;;18.70;57.30;;;;;;5093076;28;20826;-75
2022/05/01 10:41:46;;;;;;;37.30;34.80;;;18.90;56.30;;;;;;5093777;28;20819;-75
2022/05/01 10:44:30;;;;;;;35.13;32.60;;;18.90;55.80;;;;;;5093483;28;20553;-75
2022/05/01 10:47:05;;;;;;;37.60;35.00;;;19.00;56.20;;;;;;5093773;28;20453;-75
2022/05/01 10:49:41;;;;;;;37.33;34.93;;;19.20;55.70;;;;;;5093101;28;20513;-75
2022/05/01 10:52:18;;;;;;;35.93;33.40;;;19.00;55.10;;;;;;5093622;28;20471;-75
2022/05/01 10:54:52;;;;;;;38.67;36.03;;;19.00;55.50;;;;;;5093486;28;20488;-75
2022/05/01 10:57:19;;;;;;;37.10;34.60;;;18.90;56.50;;;;;;5093453;28;20996;-75
2022/05/01 10:59:51;;;;;;;42.90;39.80;;;18.90;55.00;;;;;;5093078;28;20448;-75
2022/05/01 11:02:22;;;;;;;35.77;33.37;;;18.80;55.30;;;;;;5092365;28;20536;-75
2022/05/01 11:04:52;;;;;;;39.17;36.57;;;18.70;54.60;;;;;;5093153;28;20560;-75
2022/05/01 11:07:19;;;;;;;38.07;35.57;;;18.60;54.80;;;;;;5093343;28;20456;-75
2022/05/01 11:09:48;;;;;;;37.30;34.70;;;18.60;55.60;;;;;;5092355;28;20509;-75
2022/05/01 11:12:17;;;;;;;36.30;33.67;;;18.60;55.80;;;;;;5093274;28;20457;-75
2022/05/01 11:14:51;;;;;;;38.10;35.50;;;19.00;55.20;;;;;;5093094;28;20474;-76
2022/05/01 11:17:55;;;;;;;37.40;34.87;;;19.00;55.40;;;;;;5093287;28;20450;-75
2022/05/01 11:20:34;;;;;;;35.90;33.60;;;19.00;54.50;;;;;;5092523;28;20480;-75
2022/05/01 11:23:31;;;;;;;37.23;34.67;;;19.00;53.60;;;;;;5153201;27;20535;-75
2022/05/01 11:26:15;;;;;;;35.43;33.03;;;19.00;53.90;;;;;;5171708;27;20454;-75
2022/05/01 11:28:47;;;;;;;37.23;34.63;;;19.20;54.40;;;;;;5171796;27;20540;-75
2022/05/01 11:31:45;;;;;;;37.33;34.90;;;19.50;54.10;;;;;;5171333;27;20442;-75
2022/05/01 11:34:50;;;;;;;39.67;37.10;;;19.70;54.10;;;;;;5171657;27;20501;-76
2022/05/01 11:37:17;;;;;;;38.30;35.80;;;19.80;52.90;;;;;;5171929;27;20452;-76
2022/05/01 11:40:28;;;;;;;35.13;32.83;;;19.90;52.60;;;;;;5171155;27;20450;-76
2022/05/01 11:43:16;;;;;;;34.83;32.53;;;19.80;52.60;;;;;;5171450;27;20474;-76
2022/05/01 11:45:45;;;;;;;35.93;33.30;;;20.10;52.50;;;;;;5171554;27;20457;-76
2022/05/01 11:48:13;;;;;;;37.10;34.60;;;20.30;52.00;;;;;;5171322;27;20456;-76
2022/05/01 11:50:41;;;;;;;35.23;32.90;;;20.20;51.20;;;;;;5171212;27;20454;-75
2022/05/01 11:53:17;;;;;;;35.13;32.93;;;20.10;51.20;;;;;;5171424;27;20537;-75
2022/05/01 12:04:26;;;;;;;35.13;32.90;;;20.30;50.20;;;;;;5171267;27;20449;-75
2022/05/01 12:07:00;;;;;;;38.10;35.40;;;19.70;50.50;;;;;;5158937;27;20446;-75
2022/05/01 12:09:27;;;;;;;36.67;34.27;;;19.00;52.10;;;;;;5170559;27;20977;-75
2022/05/01 12:11:55;;;;;;;39.07;36.00;;;19.00;52.20;;;;;;5170891;27;20438;-75
2022/05/01 12:14:23;;;;;;;36.30;33.70;;;18.90;52.30;;;;;;5170804;27;20561;-75
2022/05/01 12:16:50;;;;;;;35.67;33.07;;;18.80;52.50;;;;;;5170943;27;20442;-75
2022/05/01 12:19:17;;;;;;;38.17;35.57;;;18.70;52.50;;;;;;5170567;27;20450;-75
2022/05/01 12:21:44;;;;;;;36.23;33.60;;;18.50;53.40;;;;;;5170670;27;20577;-75
2022/05/01 12:24:12;;;;;;;34.13;31.97;;;18.60;53.10;;;;;;5170665;27;20569;-75
2022/05/01 12:26:47;;;;;;;34.70;32.37;;;18.60;53.50;;;;;;5170749;27;20503;-75
2022/05/01 12:29:14;;;;;;;35.87;33.30;;;18.60;53.60;;;;;;5170197;27;20533;-75
2022/05/01 12:32:13;;;;;;;36.37;33.87;;;19.00;53.80;;;;;;5170750;27;20534;-75
2022/05/01 12:34:55;;;;;;;35.10;32.80;;;19.20;52.90;;;;;;5051984;28;21049;-76
2022/05/01 12:37:24;;;;;;;37.27;34.63;;;18.90;53.00;;;;;;5144163;27;20454;-75
2022/05/01 12:39:57;;;;;;;37.43;34.97;;;19.00;53.00;;;;;;5156091;27;20812;-75
2022/05/01 12:45:11;;;;;;;36.40;33.80;;;19.30;53.10;;;;;;5156349;27;20453;-75
2022/05/01 12:47:41;;;;;;;37.63;35.03;;;19.40;52.70;;;;;;5156711;27;20451;-76
2022/05/01 12:50:10;;;;;;;36.40;33.80;;;19.40;52.30;;;;;;5155895;27;20884;-76
2022/05/01 12:52:39;;;;;;;35.93;33.53;;;19.40;53.10;;;;;;5156428;27;20455;-76
2022/05/01 12:55:08;;;;;;;37.13;34.63;;;19.80;52.20;;;;;;5156185;27;20543;-75
2022/05/01 12:57:36;;;;;;;36.33;33.73;;;19.70;51.40;;;;;;5156280;27;20868;-76
2022/05/01 13:00:04;;;;;;;36.20;33.67;;;19.70;52.10;;;;;;5155711;27;20499;-75
2022/05/01 13:02:31;;;;;;;36.93;34.27;;;19.90;51.60;;;;;;5156083;27;20509;-75
2022/05/01 13:05:03;;;;;;;36.13;33.47;;;19.80;51.10;;;;;;5156028;27;20558;-76
2022/05/01 13:07:30;;;;;;;34.77;32.37;;;19.30;51.40;;;;;;5156093;27;20446;-75
2022/05/01 13:09:57;;;;;;;34.20;31.80;;;19.20;52.30;;;;;;5155220;27;20451;-75
2022/05/01 13:12:29;;;;;;;33.63;31.33;;;19.30;52.40;;;;;;5155891;27;20542;-76